createdAt,value
2023-11-29T00:01:22.284Z,87.28
2023-11-29T00:04:24.800Z,86.59
2023-11-29T00:07:27.150Z,86.86
2023-11-29T00:10:29.604Z,86.13
2023-11-29T00:13:32.194Z,86.27
2023-11-29T00:16:34.759Z,86.68
2023-11-29T00:19:37.098Z,85.55
2023-11-29T00:22:42.136Z,87.22
2023-11-29T00:25:52.055Z,86.68
2023-11-29T00:28:54.465Z,86.23
2023-11-29T00:31:58.963Z,85.39
2023-11-29T00:35:01.695Z,86.62
2023-11-29T00:38:11.125Z,86.18
2023-11-29T00:41:13.631Z,86.78
2023-11-29T00:44:16.544Z,85.71
2023-11-29T00:47:20.062Z,84.95
2023-11-29T00:50:25.655Z,84.68
2023-11-29T00:53:33.463Z,85.38
2023-11-29T00:56:40.360Z,85.23
2023-11-29T00:59:48.784Z,85.36
2023-11-29T01:02:51.312Z,84.39
2023-11-29T01:05:53.815Z,84.56
2023-11-29T01:08:58.408Z,85.51
2023-11-29T01:12:01.253Z,84.36
2023-11-29T01:15:04.041Z,84.57
2023-11-29T01:18:09.792Z,84.46
2023-11-29T01:21:15.100Z,84.06
2023-11-29T01:24:19.568Z,84.39
2023-11-29T01:27:26.843Z,85.01
2023-11-29T01:30:34.045Z,84.29
2023-11-29T01:33:36.596Z,84.23
2023-11-29T01:36:45.917Z,84.62
2023-11-29T01:39:50.080Z,83.46
2023-11-29T01:42:55.982Z,84.47
2023-11-29T01:45:58.439Z,84.76
2023-11-29T01:49:03.954Z,84.47
2023-11-29T01:52:07.046Z,84.19
2023-11-29T01:55:11.207Z,85.04
2023-11-29T01:58:13.650Z,85.02
2023-11-29T02:01:16.378Z,86.46
2023-11-29T02:04:18.820Z,85.20
2023-11-29T02:07:21.302Z,84.61
2023-11-29T02:10:26.781Z,85.11
2023-11-29T02:13:31.450Z,84.81
2023-11-29T02:16:35.473Z,84.62
2023-11-29T02:19:40.384Z,84.88
2023-11-29T02:22:49.550Z,86.06
2023-11-29T02:25:55.865Z,85.22
2023-11-29T02:28:59.298Z,84.61
2023-11-29T02:32:03.319Z,84.65
2023-11-29T02:35:06.780Z,83.58
2023-11-29T02:38:10.948Z,85.04
2023-11-29T02:41:15.694Z,85.92
2023-11-29T02:44:20.876Z,84.65
2023-11-29T02:47:23.344Z,85.28
2023-11-29T02:50:28.395Z,85.62
2023-11-29T02:53:30.891Z,84.97
2023-11-29T02:56:33.349Z,84.66
2023-11-29T02:59:38.063Z,85.54
2023-11-29T03:02:40.654Z,85.99
2023-11-29T03:05:43.210Z,85.89
2023-11-29T03:08:45.716Z,85.74
2023-11-29T03:11:48.146Z,85.38
2023-11-29T03:14:50.651Z,85.23
2023-11-29T03:17:55.401Z,84.91
2023-11-29T03:20:57.801Z,86.22
2023-11-29T03:24:01.647Z,86.46
2023-11-29T03:27:06.584Z,85.59
2023-11-29T03:30:16.186Z,85.29
2023-11-29T03:33:20.961Z,84.66
2023-11-29T03:36:23.365Z,85.27
2023-11-29T03:39:27.157Z,85.14
2023-11-29T03:42:31.864Z,84.99
2023-11-29T03:45:37.027Z,85.16
2023-11-29T03:48:40.765Z,84.76
2023-11-29T03:51:47.110Z,84.67
2023-11-29T03:54:52.448Z,85.12
2023-11-29T03:57:55.309Z,84.87
2023-11-29T04:00:57.705Z,84.95
2023-11-29T04:04:00.368Z,85.39
2023-11-29T04:07:06.005Z,85.40
2023-11-29T04:10:10.352Z,85.32
2023-11-29T04:13:16.566Z,85.66
2023-11-29T04:16:23.126Z,84.64
2023-11-29T04:19:25.651Z,83.64
2023-11-29T04:22:28.169Z,84.52
2023-11-29T04:25:32.922Z,83.96
2023-11-29T04:28:35.279Z,84.16
2023-11-29T04:31:38.208Z,84.57
2023-11-29T04:34:47.509Z,83.94
2023-11-29T04:37:51.455Z,84.62
2023-11-29T04:40:56.614Z,84.46
2023-11-29T04:44:00.003Z,85.04
2023-11-29T04:47:02.937Z,84.55
2023-11-29T04:50:11.003Z,84.04
2023-11-29T04:53:14.192Z,84.20
2023-11-29T04:56:16.686Z,84.24
2023-11-29T04:59:20.609Z,83.74
2023-11-29T05:02:24.532Z,83.63
2023-11-29T05:05:29.114Z,84.12
2023-11-29T05:08:33.381Z,84.15
2023-11-29T05:11:35.815Z,84.27
2023-11-29T05:14:38.280Z,83.48
2023-11-29T05:17:43.456Z,83.46
2023-11-29T05:20:46.093Z,84.52
2023-11-29T05:23:50.090Z,84.97
2023-11-29T05:26:55.713Z,84.05
2023-11-29T05:30:00.332Z,84.78
2023-11-29T05:33:09.535Z,84.33
2023-11-29T05:36:12.439Z,83.98
2023-11-29T05:39:15.071Z,84.73
2023-11-29T05:42:21.994Z,84.67
2023-11-29T05:45:24.529Z,84.23
2023-11-29T05:48:30.821Z,84.58
2023-11-29T05:51:33.339Z,84.37
2023-11-29T05:54:38.925Z,84.26
2023-11-29T05:57:46.010Z,84.32
2023-11-29T06:00:49.102Z,84.04
2023-11-29T06:03:51.588Z,84.17
2023-11-29T06:06:54.073Z,83.85
2023-11-29T06:10:00.307Z,83.32
2023-11-29T06:13:05.025Z,83.74
2023-11-29T06:16:07.921Z,82.79
2023-11-29T06:19:12.923Z,82.24
2023-11-29T06:22:16.962Z,83.02
2023-11-29T06:25:20.628Z,83.09
2023-11-29T06:28:26.377Z,83.37
2023-11-29T06:31:28.956Z,82.75
2023-11-29T06:34:32.667Z,82.72
2023-11-29T06:37:35.605Z,81.44
2023-11-29T06:40:44.325Z,82.33
2023-11-29T06:43:55.073Z,82.13
2023-11-29T06:47:00.255Z,82.41
2023-11-29T06:50:05.313Z,82.25
2023-11-29T06:53:08.409Z,81.22
2023-11-29T06:56:13.315Z,81.20
2023-11-29T06:59:18.099Z,80.31
2023-11-29T07:02:23.786Z,80.95
2023-11-29T07:05:26.228Z,80.71
2023-11-29T07:08:28.787Z,80.42
2023-11-29T07:11:33.480Z,80.99
2023-11-29T07:14:36.640Z,79.22
2023-11-29T07:17:39.727Z,78.69
2023-11-29T07:20:46.226Z,78.29
2023-11-29T07:23:51.694Z,78.37
2023-11-29T07:26:56.544Z,77.72
2023-11-29T07:30:01.935Z,76.60
2023-11-29T07:33:07.302Z,76.19
2023-11-29T07:36:14.515Z,76.30
2023-11-29T07:39:17.313Z,74.12
2023-11-29T07:42:19.762Z,72.66
2023-11-29T07:45:25.819Z,70.98
2023-11-29T07:48:28.539Z,69.36
2023-11-29T07:51:33.744Z,68.74
2023-11-29T07:57:38.870Z,69.01
2023-11-29T08:00:41.386Z,67.13
2023-11-29T08:03:43.979Z,68.71
2023-11-29T08:06:47.790Z,71.13
2023-11-29T08:09:52.557Z,71.44
2023-11-29T08:12:59.919Z,71.61
2023-11-29T08:16:03.685Z,71.06
2023-11-29T08:19:07.291Z,71.85
2023-11-29T08:22:09.756Z,70.49
2023-11-29T08:25:14.868Z,69.52
2023-11-29T08:28:19.564Z,65.73
2023-11-29T08:31:25.295Z,61.51
2023-11-29T08:34:33.022Z,59.71
2023-11-29T08:37:37.219Z,59.81
2023-11-29T08:40:42.477Z,59.97
2023-11-29T08:43:44.918Z,57.83
2023-11-29T08:46:49.922Z,53.95
2023-11-29T08:49:52.346Z,56.00
2023-11-29T08:52:57.364Z,57.03
2023-11-29T08:55:59.783Z,58.46
2023-11-29T08:59:02.556Z,58.60
2023-11-29T09:02:07.226Z,57.67
2023-11-29T09:05:09.693Z,57.98
2023-11-29T09:08:15.528Z,57.42
2023-11-29T09:11:20.309Z,56.95
2023-11-29T09:14:23.339Z,56.68
2023-11-29T09:17:26.473Z,56.83
2023-11-29T09:20:29.683Z,54.86
2023-11-29T09:23:35.179Z,56.97
2023-11-29T09:26:43.291Z,54.74
2023-11-29T09:29:45.883Z,53.31
2023-11-29T09:32:48.617Z,54.31
2023-11-29T09:35:51.126Z,54.70
2023-11-29T09:38:55.782Z,54.87
2023-11-29T09:42:01.727Z,55.40
2023-11-29T09:45:09.181Z,53.32
2023-11-29T09:48:11.856Z,52.61
2023-11-29T09:51:18.665Z,53.53
2023-11-29T09:54:25.960Z,52.66
2023-11-29T09:57:30.740Z,52.08
2023-11-29T10:00:37.815Z,50.77
2023-11-29T10:03:43.779Z,50.92
2023-11-29T10:06:48.795Z,50.42
2023-11-29T10:09:54.927Z,49.11
2023-11-29T10:13:00.601Z,49.84
2023-11-29T10:16:05.704Z,47.52
2023-11-29T10:19:11.109Z,49.33
2023-11-29T10:22:17.343Z,45.35
2023-11-29T10:25:26.054Z,46.28
2023-11-29T10:28:28.511Z,46.74
2023-11-29T10:31:30.969Z,47.25
2023-11-29T10:34:34.365Z,44.75
2023-11-29T10:37:43.819Z,44.82
2023-11-29T10:40:49.681Z,47.30
2023-11-29T10:43:52.388Z,46.92
2023-11-29T10:47:18.471Z,45.68
2023-11-29T10:50:22.959Z,45.86
2023-11-29T10:53:25.617Z,48.01
2023-11-29T10:56:33.512Z,46.26
2023-11-29T10:59:36.588Z,45.05
2023-11-29T11:02:39.259Z,43.97
2023-11-29T11:05:41.890Z,44.17
2023-11-29T11:08:45.575Z,42.53
2023-11-29T11:11:48.308Z,45.12
2023-11-29T11:14:54.897Z,45.59
2023-11-29T11:18:03.788Z,43.58
2023-11-29T11:21:09.978Z,43.46
2023-11-29T11:24:12.481Z,44.44
2023-11-29T11:27:18.268Z,44.45
2023-11-29T11:30:20.873Z,40.79
2023-11-29T11:33:23.628Z,40.00
2023-11-29T11:36:27.996Z,40.66
2023-11-29T11:39:32.967Z,40.94
2023-11-29T11:42:35.631Z,41.79
2023-11-29T11:45:38.444Z,39.61
2023-11-29T11:48:41.130Z,39.54
2023-11-29T11:51:44.321Z,40.07
2023-11-29T11:54:51.239Z,38.61
2023-11-29T11:57:53.898Z,38.44
2023-11-29T12:00:56.362Z,34.23
2023-11-29T12:04:01.620Z,34.39
2023-11-29T12:07:06.198Z,37.35
2023-11-29T12:10:15.179Z,38.49
2023-11-29T12:13:22.514Z,39.58
2023-11-29T12:16:27.814Z,39.33
2023-11-29T12:19:32.977Z,40.14
2023-11-29T12:22:35.481Z,40.94
2023-11-29T12:25:43.781Z,41.58
2023-11-29T12:28:49.434Z,40.32
2023-11-29T12:31:53.566Z,38.89
2023-11-29T12:35:02.121Z,39.15
2023-11-29T12:38:04.609Z,33.59
2023-11-29T12:41:11.434Z,30.25
2023-11-29T12:44:16.359Z,27.01
2023-11-29T12:47:23.280Z,27.59
2023-11-29T12:50:26.274Z,26.43
2023-11-29T12:53:29.179Z,25.81
2023-11-29T12:56:31.773Z,28.12
2023-11-29T12:59:36.482Z,33.54
2023-11-29T13:02:41.745Z,30.86
2023-11-29T13:05:44.328Z,34.68
2023-11-29T13:08:46.750Z,37.96
2023-11-29T13:11:51.707Z,29.94
2023-11-29T13:14:54.202Z,23.41
2023-11-29T13:17:58.058Z,23.27
2023-11-29T13:21:01.105Z,20.88
2023-11-29T13:24:08.094Z,25.53
2023-11-29T13:27:15.256Z,24.45
2023-11-29T13:30:18.659Z,23.95
2023-11-29T13:33:23.950Z,24.67
2023-11-29T13:36:28.692Z,26.86
2023-11-29T13:39:32.475Z,27.06
2023-11-29T13:42:35.052Z,28.68
2023-11-29T13:45:37.721Z,30.34
2023-11-29T13:48:45.811Z,34.31
2023-11-29T13:51:58.056Z,35.47
2023-11-29T13:55:13.549Z,32.27
2023-11-29T13:58:15.926Z,36.33
2023-11-29T14:01:18.400Z,37.08
2023-11-29T14:04:21.282Z,39.82
2023-11-29T14:07:23.905Z,40.44
2023-11-29T14:11:05.203Z,43.35
2023-11-29T14:14:10.669Z,43.89
2023-11-29T14:17:13.587Z,45.60
2023-11-29T14:20:17.521Z,45.80
2023-11-29T14:23:23.959Z,47.71
2023-11-29T14:26:28.926Z,46.67
2023-11-29T14:29:33.673Z,49.15
2023-11-29T14:32:36.355Z,49.29
2023-11-29T14:35:39.113Z,50.64
2023-11-29T14:38:41.975Z,53.54
2023-11-29T14:41:47.431Z,52.56
2023-11-29T14:44:51.283Z,56.46
2023-11-29T14:47:55.451Z,56.24
2023-11-29T14:51:04.039Z,55.94
2023-11-29T14:54:06.532Z,55.20
2023-11-29T14:57:11.270Z,55.90
2023-11-29T15:00:19.194Z,58.07
2023-11-29T15:03:25.252Z,59.88
2023-11-29T15:06:28.987Z,60.99
2023-11-29T15:09:34.149Z,60.21
2023-11-29T15:12:40.358Z,59.29
2023-11-29T15:15:48.321Z,61.14
2023-11-29T15:18:53.359Z,61.68
2023-11-29T15:21:58.597Z,59.85
2023-11-29T15:25:08.695Z,60.82
2023-11-29T15:28:17.435Z,59.74
2023-11-29T15:31:24.556Z,60.32
2023-11-29T15:34:32.440Z,60.55
2023-11-29T15:37:37.683Z,60.09
2023-11-29T15:40:46.461Z,60.18
2023-11-29T15:43:49.767Z,62.21
2023-11-29T15:46:52.332Z,62.02
2023-11-29T15:49:58.984Z,62.04
2023-11-29T15:53:01.797Z,62.78
2023-11-29T15:56:07.060Z,62.39
2023-11-29T15:59:11.987Z,63.62
2023-11-29T16:02:15.102Z,62.76
2023-11-29T16:05:18.133Z,62.99
2023-11-29T16:08:20.550Z,63.88
2023-11-29T16:11:25.935Z,64.05
2023-11-29T16:14:28.368Z,63.86
2023-11-29T16:17:30.731Z,64.22
2023-11-29T16:20:37.978Z,64.33
2023-11-29T16:23:40.739Z,66.34
2023-11-29T16:26:43.665Z,65.65
2023-11-29T16:29:48.442Z,67.55
2023-11-29T16:32:56.604Z,68.69
2023-11-29T16:36:02.804Z,68.01
2023-11-29T16:39:05.835Z,68.16
2023-11-29T16:42:11.267Z,67.79
2023-11-29T16:45:16.152Z,68.18
2023-11-29T16:48:18.973Z,69.37
2023-11-29T16:51:23.842Z,70.16
2023-11-29T16:54:28.909Z,71.95
2023-11-29T16:57:31.466Z,71.57
2023-11-29T17:00:34.112Z,72.41
2023-11-29T17:03:36.688Z,74.21
2023-11-29T17:06:42.596Z,74.74
2023-11-29T17:09:45.114Z,75.02
2023-11-29T17:12:47.487Z,75.65
2023-11-29T17:15:50.097Z,76.89
2023-11-29T17:18:52.656Z,77.93
2023-11-29T17:21:57.815Z,78.67
2023-11-29T17:25:00.918Z,79.02
2023-11-29T17:28:05.000Z,79.28
2023-11-29T17:31:14.438Z,79.66
2023-11-29T17:34:17.900Z,80.36
2023-11-29T17:37:21.303Z,80.04
2023-11-29T17:40:23.865Z,80.22
2023-11-29T17:43:26.954Z,81.12
2023-11-29T17:46:29.634Z,81.49
2023-11-29T17:49:32.795Z,81.06
2023-11-29T17:52:37.293Z,81.40
2023-11-29T17:55:40.459Z,81.53
2023-11-29T17:58:44.883Z,82.08
2023-11-29T18:01:47.807Z,81.29
2023-11-29T18:04:52.241Z,81.30
2023-11-29T18:07:55.508Z,81.58
2023-11-29T18:11:02.186Z,82.67
2023-11-29T18:14:04.756Z,82.62
2023-11-29T18:17:07.283Z,81.86
2023-11-29T18:20:10.157Z,83.13
2023-11-29T18:23:13.518Z,83.03
2023-11-29T18:26:18.540Z,83.62
2023-11-29T18:29:21.259Z,83.00
2023-11-29T18:32:24.282Z,83.19
2023-11-29T18:35:29.599Z,83.65
2023-11-29T18:38:32.371Z,83.64
2023-11-29T18:41:35.400Z,83.10
2023-11-29T18:44:38.863Z,83.88
2023-11-29T18:47:42.408Z,84.44
2023-11-29T18:50:45.210Z,84.31
2023-11-29T18:53:48.428Z,84.62
2023-11-29T18:56:51.151Z,84.06
2023-11-29T18:59:53.804Z,84.24
2023-11-29T19:02:59.351Z,84.66
2023-11-29T19:06:04.639Z,84.01
2023-11-29T19:09:07.190Z,84.83
2023-11-29T19:12:09.671Z,85.27
2023-11-29T19:15:12.145Z,85.12
2023-11-29T19:18:18.192Z,85.01
2023-11-29T19:21:25.480Z,84.90
2023-11-29T19:24:28.020Z,84.97
2023-11-29T19:27:36.002Z,85.93
2023-11-29T19:30:38.505Z,85.69
2023-11-29T19:33:41.115Z,86.18
2023-11-29T19:36:44.202Z,86.09
2023-11-29T19:39:46.732Z,85.54
2023-11-29T19:42:49.151Z,86.22
2023-11-29T19:45:53.808Z,86.41
2023-11-29T19:48:56.474Z,86.84
2023-11-29T19:51:58.924Z,86.38
2023-11-29T19:55:04.187Z,86.81
2023-11-29T19:58:13.723Z,86.35
2023-11-29T20:01:22.898Z,86.35
2023-11-29T20:04:25.396Z,86.15
2023-11-29T20:07:28.003Z,86.22
2023-11-29T20:10:33.306Z,85.36
2023-11-29T20:13:35.718Z,86.32
2023-11-29T20:16:40.713Z,85.81
2023-11-29T20:19:47.937Z,86.38
2023-11-29T20:22:52.720Z,85.35
2023-11-29T20:25:58.102Z,86.03
2023-11-29T20:29:03.131Z,86.71
2023-11-29T20:32:06.052Z,87.30
2023-11-29T20:35:25.357Z,87.23
2023-11-29T20:38:33.834Z,87.55
2023-11-29T20:41:36.291Z,87.65
2023-11-29T20:44:40.977Z,87.84
2023-11-29T20:47:45.926Z,87.37
2023-11-29T20:50:48.425Z,87.44
2023-11-29T20:53:53.590Z,87.57
2023-11-29T20:56:56.117Z,87.28
2023-11-29T20:59:58.599Z,86.91
2023-11-29T21:03:06.137Z,87.14
2023-11-29T21:06:08.941Z,86.01
2023-11-29T21:09:11.433Z,85.70
2023-11-29T21:12:18.640Z,86.00
2023-11-29T21:15:21.138Z,86.53
2023-11-29T21:18:23.732Z,86.30
2023-11-29T21:21:26.360Z,86.93
2023-11-29T21:24:28.803Z,86.62
2023-11-29T21:27:35.858Z,85.99
2023-11-29T21:30:38.285Z,86.56
2023-11-29T21:33:41.252Z,87.04
2023-11-29T21:36:45.944Z,86.61
2023-11-29T21:39:48.380Z,87.02
2023-11-29T21:42:51.001Z,86.86
2023-11-29T21:45:55.960Z,86.88
2023-11-29T21:49:01.236Z,86.72
2023-11-29T21:52:03.862Z,86.72
2023-11-29T21:55:09.627Z,86.44
2023-11-29T21:58:15.540Z,86.70
2023-11-29T22:01:22.914Z,86.38
2023-11-29T22:04:26.157Z,86.14
2023-11-29T22:07:31.082Z,86.58
2023-11-29T22:10:34.583Z,85.99
2023-11-29T22:13:37.352Z,86.58
2023-11-29T22:16:40.465Z,86.80
2023-11-29T22:19:45.898Z,86.99
2023-11-29T22:22:48.452Z,86.87
2023-11-29T22:25:50.971Z,86.79
2023-11-29T22:28:53.634Z,87.11
2023-11-29T22:31:56.286Z,86.78
2023-11-29T22:34:58.713Z,86.60
2023-11-29T22:38:01.303Z,87.10
2023-11-29T22:41:03.771Z,87.15
2023-11-29T22:44:06.210Z,86.91
2023-11-29T22:47:08.584Z,87.94
2023-11-29T22:50:11.154Z,88.00
2023-11-29T22:53:13.743Z,87.77
2023-11-29T22:56:16.530Z,88.42
2023-11-29T22:59:19.127Z,88.25
2023-11-29T23:02:24.757Z,89.01
2023-11-29T23:05:32.215Z,89.18
2023-11-29T23:08:34.673Z,88.99
2023-11-29T23:11:37.182Z,89.46
2023-11-29T23:14:41.780Z,89.45
2023-11-29T23:17:44.938Z,89.74
2023-11-29T23:20:50.166Z,90.04
2023-11-29T23:23:55.375Z,90.45
2023-11-29T23:26:58.390Z,90.70
2023-11-29T23:30:03.477Z,91.10
2023-11-29T23:33:05.840Z,90.86
2023-11-29T23:36:11.216Z,90.87
2023-11-29T23:39:16.454Z,90.25
2023-11-29T23:42:21.373Z,90.53
2023-11-29T23:45:23.835Z,91.09
2023-11-29T23:48:26.312Z,90.97
2023-11-29T23:51:31.132Z,90.67
2023-11-29T23:54:33.483Z,90.31
2023-11-29T23:57:38.201Z,89.96
